sensor_id;sensor_type;location;lat;lon;timestamp;P1;durP1;ratioP1;P2;durP2;ratioP2
26113;SDS011;13966;48.828;9.064;2023-12-28T00:00:30;8.55;;;4.07;;
26113;SDS011;13966;48.828;9.064;2023-12-28T00:02:55;6.15;;;3.78;;
26113;SDS011;13966;48.828;9.064;2023-12-28T00:05:21;4.40;;;3.20;;
26113;SDS011;13966;48.828;9.064;2023-12-28T00:07:47;7.88;;;3.83;;
26113;SDS011;13966;48.828;9.064;2023-12-28T00:10:21;6.30;;;3.08;;
26113;SDS011;13966;48.828;9.064;2023-12-28T00:12:47;5.72;;;3.83;;
26113;SDS011;13966;48.828;9.064;2023-12-28T00:15:13;5.60;;;3.17;;
26113;SDS011;13966;48.828;9.064;2023-12-28T00:17:39;6.53;;;3.90;;
26113;SDS011;13966;48.828;9.064;2023-12-28T00:20:05;6.18;;;3.78;;
26113;SDS011;13966;48.828;9.064;2023-12-28T00:22:31;4.97;;;3.30;;
26113;SDS011;13966;48.828;9.064;2023-12-28T00:24:57;5.88;;;3.38;;
26113;SDS011;13966;48.828;9.064;2023-12-28T00:27:23;5.75;;;3.50;;
26113;SDS011;13966;48.828;9.064;2023-12-28T00:29:49;5.68;;;3.35;;
26113;SDS011;13966;48.828;9.064;2023-12-28T00:32:15;6.82;;;3.60;;
26113;SDS011;13966;48.828;9.064;2023-12-28T00:34:41;5.50;;;3.53;;
26113;SDS011;13966;48.828;9.064;2023-12-28T00:37:07;6.15;;;3.70;;
26113;SDS011;13966;48.828;9.064;2023-12-28T00:39:33;5.70;;;3.55;;
26113;SDS011;13966;48.828;9.064;2023-12-28T00:42:00;5.13;;;3.60;;
26113;SDS011;13966;48.828;9.064;2023-12-28T00:44:26;5.57;;;3.70;;
26113;SDS011;13966;48.828;9.064;2023-12-28T00:46:52;4.60;;;3.20;;
26113;SDS011;13966;48.828;9.064;2023-12-28T00:49:18;5.15;;;3.22;;
26113;SDS011;13966;48.828;9.064;2023-12-28T00:51:44;5.25;;;3.50;;
26113;SDS011;13966;48.828;9.064;2023-12-28T00:54:10;8.00;;;4.20;;
26113;SDS011;13966;48.828;9.064;2023-12-28T00:56:36;7.35;;;4.28;;
26113;SDS011;13966;48.828;9.064;2023-12-28T00:59:02;7.50;;;3.78;;
26113;SDS011;13966;48.828;9.064;2023-12-28T01:01:28;4.60;;;3.72;;
26113;SDS011;13966;48.828;9.064;2023-12-28T01:03:55;5.97;;;4.07;;
26113;SDS011;13966;48.828;9.064;2023-12-28T01:06:22;6.47;;;4.00;;
26113;SDS011;13966;48.828;9.064;2023-12-28T01:08:52;4.85;;;3.22;;
26113;SDS011;13966;48.828;9.064;2023-12-28T01:11:18;6.32;;;3.55;;
26113;SDS011;13966;48.828;9.064;2023-12-28T01:13:44;5.75;;;3.63;;
26113;SDS011;13966;48.828;9.064;2023-12-28T01:16:12;5.75;;;3.65;;
26113;SDS011;13966;48.828;9.064;2023-12-28T01:18:38;6.80;;;3.22;;
26113;SDS011;13966;48.828;9.064;2023-12-28T01:21:04;5.47;;;2.92;;
26113;SDS011;13966;48.828;9.064;2023-12-28T01:23:30;4.85;;;3.08;;
26113;SDS011;13966;48.828;9.064;2023-12-28T01:25:56;5.03;;;3.20;;
26113;SDS011;13966;48.828;9.064;2023-12-28T01:28:22;5.45;;;3.22;;
26113;SDS011;13966;48.828;9.064;2023-12-28T01:30:48;5.10;;;3.30;;
26113;SDS011;13966;48.828;9.064;2023-12-28T01:33:14;3.65;;;2.70;;
26113;SDS011;13966;48.828;9.064;2023-12-28T01:35:41;5.55;;;3.55;;
26113;SDS011;13966;48.828;9.064;2023-12-28T01:38:07;7.03;;;3.67;;
26113;SDS011;13966;48.828;9.064;2023-12-28T01:40:33;4.13;;;3.03;;
26113;SDS011;13966;48.828;9.064;2023-12-28T01:42:59;4.60;;;3.28;;
26113;SDS011;13966;48.828;9.064;2023-12-28T01:45:25;5.10;;;3.17;;
26113;SDS011;13966;48.828;9.064;2023-12-28T01:47:52;5.80;;;3.28;;
26113;SDS011;13966;48.828;9.064;2023-12-28T01:50:19;5.80;;;3.42;;
26113;SDS011;13966;48.828;9.064;2023-12-28T01:52:45;5.32;;;3.28;;
26113;SDS011;13966;48.828;9.064;2023-12-28T01:55:12;6.10;;;3.38;;
26113;SDS011;13966;48.828;9.064;2023-12-28T01:57:38;4.85;;;3.22;;
26113;SDS011;13966;48.828;9.064;2023-12-28T02:00:04;6.07;;;3.65;;
26113;SDS011;13966;48.828;9.064;2023-12-28T02:02:31;7.22;;;3.65;;
26113;SDS011;13966;48.828;9.064;2023-12-28T02:04:57;5.03;;;3.53;;
26113;SDS011;13966;48.828;9.064;2023-12-28T02:07:23;4.95;;;3.35;;
26113;SDS011;13966;48.828;9.064;2023-12-28T02:09:49;5.28;;;3.60;;
26113;SDS011;13966;48.828;9.064;2023-12-28T02:12:15;5.68;;;3.47;;
26113;SDS011;13966;48.828;9.064;2023-12-28T02:14:41;5.70;;;2.90;;
26113;SDS011;13966;48.828;9.064;2023-12-28T02:17:13;3.28;;;2.70;;
26113;SDS011;13966;48.828;9.064;2023-12-28T02:19:51;4.70;;;3.20;;
26113;SDS011;13966;48.828;9.064;2023-12-28T02:22:18;5.65;;;3.17;;
26113;SDS011;13966;48.828;9.064;2023-12-28T02:27:19;6.13;;;3.08;;
26113;SDS011;13966;48.828;9.064;2023-12-28T02:29:45;4.90;;;3.35;;
26113;SDS011;13966;48.828;9.064;2023-12-28T02:32:11;5.63;;;3.33;;
26113;SDS011;13966;48.828;9.064;2023-12-28T02:34:38;4.68;;;2.85;;
26113;SDS011;13966;48.828;9.064;2023-12-28T02:37:05;4.47;;;2.88;;
26113;SDS011;13966;48.828;9.064;2023-12-28T02:39:31;5.47;;;3.30;;
26113;SDS011;13966;48.828;9.064;2023-12-28T02:41:57;6.30;;;3.20;;
26113;SDS011;13966;48.828;9.064;2023-12-28T02:44:23;6.15;;;3.20;;
26113;SDS011;13966;48.828;9.064;2023-12-28T02:46:49;4.50;;;3.08;;
26113;SDS011;13966;48.828;9.064;2023-12-28T02:49:15;4.00;;;2.90;;
26113;SDS011;13966;48.828;9.064;2023-12-28T02:51:41;6.05;;;3.22;;
26113;SDS011;13966;48.828;9.064;2023-12-28T02:54:07;6.22;;;3.05;;
26113;SDS011;13966;48.828;9.064;2023-12-28T02:56:33;6.82;;;2.78;;
26113;SDS011;13966;48.828;9.064;2023-12-28T02:58:59;5.07;;;3.40;;
26113;SDS011;13966;48.828;9.064;2023-12-28T03:01:25;4.78;;;3.47;;
26113;SDS011;13966;48.828;9.064;2023-12-28T03:03:52;8.95;;;4.30;;
26113;SDS011;13966;48.828;9.064;2023-12-28T03:06:18;7.88;;;4.43;;
26113;SDS011;13966;48.828;9.064;2023-12-28T03:08:44;4.78;;;3.55;;
26113;SDS011;13966;48.828;9.064;2023-12-28T03:11:10;4.43;;;3.28;;
26113;SDS011;13966;48.828;9.064;2023-12-28T03:13:36;6.60;;;3.97;;
26113;SDS011;13966;48.828;9.064;2023-12-28T03:16:02;4.57;;;3.20;;
26113;SDS011;13966;48.828;9.064;2023-12-28T03:18:28;5.28;;;3.30;;
26113;SDS011;13966;48.828;9.064;2023-12-28T03:20:54;4.40;;;3.22;;
26113;SDS011;13966;48.828;9.064;2023-12-28T03:23:20;5.20;;;3.50;;
26113;SDS011;13966;48.828;9.064;2023-12-28T03:25:46;6.57;;;3.83;;
26113;SDS011;13966;48.828;9.064;2023-12-28T03:28:12;6.88;;;3.25;;
26113;SDS011;13966;48.828;9.064;2023-12-28T03:30:38;6.68;;;4.07;;
26113;SDS011;13966;48.828;9.064;2023-12-28T03:33:04;6.32;;;3.53;;
26113;SDS011;13966;48.828;9.064;2023-12-28T03:35:30;5.47;;;3.50;;
26113;SDS011;13966;48.828;9.064;2023-12-28T03:37:56;5.47;;;3.13;;
26113;SDS011;13966;48.828;9.064;2023-12-28T03:40:22;6.00;;;3.25;;
26113;SDS011;13966;48.828;9.064;2023-12-28T03:42:48;6.10;;;3.72;;
26113;SDS011;13966;48.828;9.064;2023-12-28T03:45:14;6.88;;;4.10;;
26113;SDS011;13966;48.828;9.064;2023-12-28T03:47:40;6.18;;;3.78;;
26113;SDS011;13966;48.828;9.064;2023-12-28T03:50:06;7.00;;;4.15;;
26113;SDS011;13966;48.828;9.064;2023-12-28T03:52:32;6.95;;;4.20;;
26113;SDS011;13966;48.828;9.064;2023-12-28T03:54:58;6.38;;;4.30;;
26113;SDS011;13966;48.828;9.064;2023-12-28T03:57:25;6.32;;;3.92;;
26113;SDS011;13966;48.828;9.064;2023-12-28T03:59:51;8.00;;;3.72;;
26113;SDS011;13966;48.828;9.064;2023-12-28T04:02:18;5.63;;;3.65;;
26113;SDS011;13966;48.828;9.064;2023-12-28T04:04:44;8.95;;;4.22;;
26113;SDS011;13966;48.828;9.064;2023-12-28T04:07:10;5.95;;;3.80;;
26113;SDS011;13966;48.828;9.064;2023-12-28T04:09:36;5.68;;;3.53;;
26113;SDS011;13966;48.828;9.064;2023-12-28T04:12:02;7.35;;;4.22;;
26113;SDS011;13966;48.828;9.064;2023-12-28T04:14:28;7.38;;;4.47;;
26113;SDS011;13966;48.828;9.064;2023-12-28T04:16:54;5.85;;;3.78;;
26113;SDS011;13966;48.828;9.064;2023-12-28T04:19:20;5.53;;;3.95;;
26113;SDS011;13966;48.828;9.064;2023-12-28T04:21:46;7.32;;;3.90;;
26113;SDS011;13966;48.828;9.064;2023-12-28T04:24:12;5.80;;;3.72;;
26113;SDS011;13966;48.828;9.064;2023-12-28T04:26:38;6.95;;;4.10;;
26113;SDS011;13966;48.828;9.064;2023-12-28T04:29:04;7.55;;;3.80;;
26113;SDS011;13966;48.828;9.064;2023-12-28T04:31:32;5.35;;;3.55;;
26113;SDS011;13966;48.828;9.064;2023-12-28T04:33:58;7.18;;;3.78;;
26113;SDS011;13966;48.828;9.064;2023-12-28T04:36:24;7.72;;;3.85;;
26113;SDS011;13966;48.828;9.064;2023-12-28T04:38:50;7.88;;;4.30;;
26113;SDS011;13966;48.828;9.064;2023-12-28T04:41:15;5.57;;;3.85;;
26113;SDS011;13966;48.828;9.064;2023-12-28T04:43:41;6.55;;;3.88;;
26113;SDS011;13966;48.828;9.064;2023-12-28T04:46:07;9.30;;;4.18;;
26113;SDS011;13966;48.828;9.064;2023-12-28T04:48:34;6.45;;;4.07;;
26113;SDS011;13966;48.828;9.064;2023-12-28T04:51:02;6.43;;;3.55;;
26113;SDS011;13966;48.828;9.064;2023-12-28T04:53:28;6.30;;;3.47;;
26113;SDS011;13966;48.828;9.064;2023-12-28T04:55:55;5.25;;;3.50;;
26113;SDS011;13966;48.828;9.064;2023-12-28T04:58:21;5.85;;;3.60;;
26113;SDS011;13966;48.828;9.064;2023-12-28T05:00:47;8.15;;;3.40;;
26113;SDS011;13966;48.828;9.064;2023-12-28T05:03:13;8.52;;;3.95;;
26113;SDS011;13966;48.828;9.064;2023-12-28T05:05:39;8.18;;;3.67;;
26113;SDS011;13966;48.828;9.064;2023-12-28T05:08:05;4.65;;;3.25;;
26113;SDS011;13966;48.828;9.064;2023-12-28T05:10:31;5.55;;;3.65;;
26113;SDS011;13966;48.828;9.064;2023-12-28T05:12:57;7.05;;;3.45;;
26113;SDS011;13966;48.828;9.064;2023-12-28T05:15:23;5.18;;;2.92;;
26113;SDS011;13966;48.828;9.064;2023-12-28T05:17:49;5.53;;;3.47;;
26113;SDS011;13966;48.828;9.064;2023-12-28T05:20:15;4.55;;;3.17;;
26113;SDS011;13966;48.828;9.064;2023-12-28T05:22:41;6.97;;;3.80;;
26113;SDS011;13966;48.828;9.064;2023-12-28T05:25:07;9.57;;;5.15;;
26113;SDS011;13966;48.828;9.064;2023-12-28T05:27:33;6.30;;;3.70;;
26113;SDS011;13966;48.828;9.064;2023-12-28T05:29:59;3.45;;;2.63;;
26113;SDS011;13966;48.828;9.064;2023-12-28T05:32:25;6.78;;;3.30;;
26113;SDS011;13966;48.828;9.064;2023-12-28T05:34:51;4.45;;;2.67;;
26113;SDS011;13966;48.828;9.064;2023-12-28T05:37:17;4.75;;;3.15;;
26113;SDS011;13966;48.828;9.064;2023-12-28T05:39:43;7.10;;;3.20;;
26113;SDS011;13966;48.828;9.064;2023-12-28T05:42:09;4.60;;;2.53;;
26113;SDS011;13966;48.828;9.064;2023-12-28T05:44:35;4.38;;;2.30;;
26113;SDS011;13966;48.828;9.064;2023-12-28T05:47:02;5.35;;;2.58;;
26113;SDS011;13966;48.828;9.064;2023-12-28T05:49:28;4.50;;;2.70;;
26113;SDS011;13966;48.828;9.064;2023-12-28T05:51:55;4.43;;;2.55;;
26113;SDS011;13966;48.828;9.064;2023-12-28T05:54:21;5.30;;;2.65;;
26113;SDS011;13966;48.828;9.064;2023-12-28T05:56:47;4.95;;;2.88;;
26113;SDS011;13966;48.828;9.064;2023-12-28T05:59:13;3.40;;;2.60;;
26113;SDS011;13966;48.828;9.064;2023-12-28T06:01:43;5.75;;;4.25;;
26113;SDS011;13966;48.828;9.064;2023-12-28T06:04:09;11.85;;;7.25;;
26113;SDS011;13966;48.828;9.064;2023-12-28T06:06:35;18.08;;;9.20;;
26113;SDS011;13966;48.828;9.064;2023-12-28T06:09:01;17.20;;;10.65;;
26113;SDS011;13966;48.828;9.064;2023-12-28T06:11:28;10.77;;;7.55;;
26113;SDS011;13966;48.828;9.064;2023-12-28T06:13:55;8.52;;;5.32;;
26113;SDS011;13966;48.828;9.064;2023-12-28T06:16:21;9.55;;;5.68;;
26113;SDS011;13966;48.828;9.064;2023-12-28T06:18:47;12.20;;;6.15;;
26113;SDS011;13966;48.828;9.064;2023-12-28T06:21:13;10.80;;;6.85;;
26113;SDS011;13966;48.828;9.064;2023-12-28T06:23:39;9.02;;;5.65;;
26113;SDS011;13966;48.828;9.064;2023-12-28T06:26:05;8.75;;;5.22;;
26113;SDS011;13966;48.828;9.064;2023-12-28T06:28:34;4.45;;;3.05;;
26113;SDS011;13966;48.828;9.064;2023-12-28T06:31:00;9.02;;;5.57;;
26113;SDS011;13966;48.828;9.064;2023-12-28T06:33:29;8.75;;;5.63;;
26113;SDS011;13966;48.828;9.064;2023-12-28T06:35:55;3.65;;;2.00;;
26113;SDS011;13966;48.828;9.064;2023-12-28T06:38:23;5.88;;;3.92;;
26113;SDS011;13966;48.828;9.064;2023-12-28T06:40:49;5.45;;;3.60;;
26113;SDS011;13966;48.828;9.064;2023-12-28T06:43:15;6.45;;;3.83;;
26113;SDS011;13966;48.828;9.064;2023-12-28T06:45:41;7.25;;;3.65;;
26113;SDS011;13966;48.828;9.064;2023-12-28T06:48:07;5.63;;;3.70;;
26113;SDS011;13966;48.828;9.064;2023-12-28T06:50:33;4.93;;;3.20;;
26113;SDS011;13966;48.828;9.064;2023-12-28T06:52:59;4.72;;;2.97;;
26113;SDS011;13966;48.828;9.064;2023-12-28T06:55:25;4.28;;;2.80;;
26113;SDS011;13966;48.828;9.064;2023-12-28T06:57:51;5.47;;;2.50;;
26113;SDS011;13966;48.828;9.064;2023-12-28T07:00:17;3.72;;;2.42;;
26113;SDS011;13966;48.828;9.064;2023-12-28T07:02:43;4.18;;;2.42;;
26113;SDS011;13966;48.828;9.064;2023-12-28T07:05:09;3.50;;;2.20;;
26113;SDS011;13966;48.828;9.064;2023-12-28T07:07:37;4.32;;;2.80;;
26113;SDS011;13966;48.828;9.064;2023-12-28T07:10:03;7.85;;;3.25;;
26113;SDS011;13966;48.828;9.064;2023-12-28T07:12:29;5.28;;;2.95;;
26113;SDS011;13966;48.828;9.064;2023-12-28T07:14:55;2.45;;;1.60;;
26113;SDS011;13966;48.828;9.064;2023-12-28T07:17:21;3.05;;;1.85;;
26113;SDS011;13966;48.828;9.064;2023-12-28T07:19:47;5.45;;;2.45;;
26113;SDS011;13966;48.828;9.064;2023-12-28T07:22:13;4.25;;;2.33;;
26113;SDS011;13966;48.828;9.064;2023-12-28T07:24:39;4.47;;;2.88;;
26113;SDS011;13966;48.828;9.064;2023-12-28T07:27:05;3.17;;;2.15;;
26113;SDS011;13966;48.828;9.064;2023-12-28T07:29:31;5.65;;;2.90;;
26113;SDS011;13966;48.828;9.064;2023-12-28T07:31:57;2.45;;;1.92;;
26113;SDS011;13966;48.828;9.064;2023-12-28T07:34:23;3.40;;;1.98;;
26113;SDS011;13966;48.828;9.064;2023-12-28T07:36:49;6.63;;;2.50;;
26113;SDS011;13966;48.828;9.064;2023-12-28T07:39:15;3.70;;;2.08;;
26113;SDS011;13966;48.828;9.064;2023-12-28T07:41:41;3.08;;;1.88;;
26113;SDS011;13966;48.828;9.064;2023-12-28T07:44:07;3.97;;;2.47;;
26113;SDS011;13966;48.828;9.064;2023-12-28T07:46:33;3.13;;;2.40;;
26113;SDS011;13966;48.828;9.064;2023-12-28T07:48:59;4.82;;;2.47;;
26113;SDS011;13966;48.828;9.064;2023-12-28T07:51:25;4.57;;;2.55;;
26113;SDS011;13966;48.828;9.064;2023-12-28T07:53:57;6.53;;;2.75;;
26113;SDS011;13966;48.828;9.064;2023-12-28T07:56:23;5.47;;;2.97;;
26113;SDS011;13966;48.828;9.064;2023-12-28T07:58:49;5.95;;;2.72;;
26113;SDS011;13966;48.828;9.064;2023-12-28T08:01:15;5.97;;;3.10;;
26113;SDS011;13966;48.828;9.064;2023-12-28T08:03:41;13.68;;;4.80;;
26113;SDS011;13966;48.828;9.064;2023-12-28T08:06:07;8.50;;;4.72;;
26113;SDS011;13966;48.828;9.064;2023-12-28T08:08:33;8.43;;;3.83;;
26113;SDS011;13966;48.828;9.064;2023-12-28T08:10:59;5.60;;;3.97;;
26113;SDS011;13966;48.828;9.064;2023-12-28T08:13:25;6.97;;;4.18;;
26113;SDS011;13966;48.828;9.064;2023-12-28T08:15:51;9.25;;;4.57;;
26113;SDS011;13966;48.828;9.064;2023-12-28T08:18:17;8.23;;;4.78;;
26113;SDS011;13966;48.828;9.064;2023-12-28T08:20:44;6.13;;;4.05;;
26113;SDS011;13966;48.828;9.064;2023-12-28T08:23:09;9.43;;;4.97;;
26113;SDS011;13966;48.828;9.064;2023-12-28T08:25:35;7.93;;;4.70;;
26113;SDS011;13966;48.828;9.064;2023-12-28T08:28:01;7.82;;;4.25;;
26113;SDS011;13966;48.828;9.064;2023-12-28T08:30:27;7.00;;;4.53;;
26113;SDS011;13966;48.828;9.064;2023-12-28T08:32:54;7.88;;;4.75;;
26113;SDS011;13966;48.828;9.064;2023-12-28T08:35:19;7.72;;;4.80;;
26113;SDS011;13966;48.828;9.064;2023-12-28T08:37:45;9.00;;;4.03;;
26113;SDS011;13966;48.828;9.064;2023-12-28T08:40:11;7.63;;;4.07;;
26113;SDS011;13966;48.828;9.064;2023-12-28T08:42:37;8.48;;;3.30;;
26113;SDS011;13966;48.828;9.064;2023-12-28T08:45:04;8.35;;;3.30;;
26113;SDS011;13966;48.828;9.064;2023-12-28T08:47:30;5.50;;;2.90;;
26113;SDS011;13966;48.828;9.064;2023-12-28T08:49:56;4.95;;;2.75;;
26113;SDS011;13966;48.828;9.064;2023-12-28T08:52:22;8.90;;;3.63;;
26113;SDS011;13966;48.828;9.064;2023-12-28T08:54:48;6.93;;;4.70;;
26113;SDS011;13966;48.828;9.064;2023-12-28T08:57:14;6.68;;;4.30;;
26113;SDS011;13966;48.828;9.064;2023-12-28T08:59:40;7.15;;;4.10;;
26113;SDS011;13966;48.828;9.064;2023-12-28T09:02:06;7.28;;;4.10;;
26113;SDS011;13966;48.828;9.064;2023-12-28T09:04:32;7.85;;;4.13;;
26113;SDS011;13966;48.828;9.064;2023-12-28T09:06:58;10.90;;;6.53;;
26113;SDS011;13966;48.828;9.064;2023-12-28T09:09:24;11.45;;;5.40;;
26113;SDS011;13966;48.828;9.064;2023-12-28T09:11:50;9.00;;;5.25;;
26113;SDS011;13966;48.828;9.064;2023-12-28T09:14:16;8.23;;;5.32;;
26113;SDS011;13966;48.828;9.064;2023-12-28T09:16:43;11.65;;;5.47;;
26113;SDS011;13966;48.828;9.064;2023-12-28T09:19:09;9.77;;;5.68;;
26113;SDS011;13966;48.828;9.064;2023-12-28T09:21:35;8.75;;;5.60;;
26113;SDS011;13966;48.828;9.064;2023-12-28T09:24:01;10.93;;;5.35;;
26113;SDS011;13966;48.828;9.064;2023-12-28T09:26:27;13.32;;;8.52;;
26113;SDS011;13966;48.828;9.064;2023-12-28T09:28:53;8.65;;;5.10;;
26113;SDS011;13966;48.828;9.064;2023-12-28T09:31:20;9.43;;;5.00;;
26113;SDS011;13966;48.828;9.064;2023-12-28T09:33:46;8.93;;;3.78;;
26113;SDS011;13966;48.828;9.064;2023-12-28T09:36:12;6.75;;;3.88;;
26113;SDS011;13966;48.828;9.064;2023-12-28T09:38:38;3.83;;;2.63;;
26113;SDS011;13966;48.828;9.064;2023-12-28T09:41:08;7.10;;;3.50;;
26113;SDS011;13966;48.828;9.064;2023-12-28T09:43:37;2.88;;;2.00;;
26113;SDS011;13966;48.828;9.064;2023-12-28T09:46:07;3.97;;;2.20;;
26113;SDS011;13966;48.828;9.064;2023-12-28T09:48:33;3.50;;;1.98;;
26113;SDS011;13966;48.828;9.064;2023-12-28T09:50:59;2.95;;;1.88;;
26113;SDS011;13966;48.828;9.064;2023-12-28T09:53:25;6.95;;;2.10;;
26113;SDS011;13966;48.828;9.064;2023-12-28T09:55:51;3.97;;;1.80;;
26113;SDS011;13966;48.828;9.064;2023-12-28T09:58:17;4.03;;;2.08;;
26113;SDS011;13966;48.828;9.064;2023-12-28T10:00:44;2.65;;;1.92;;
26113;SDS011;13966;48.828;9.064;2023-12-28T10:03:11;2.50;;;1.60;;
26113;SDS011;13966;48.828;9.064;2023-12-28T10:05:38;5.47;;;2.17;;
26113;SDS011;13966;48.828;9.064;2023-12-28T10:08:06;3.28;;;2.17;;
26113;SDS011;13966;48.828;9.064;2023-12-28T10:10:31;4.22;;;2.10;;
26113;SDS011;13966;48.828;9.064;2023-12-28T10:12:57;6.38;;;2.58;;
26113;SDS011;13966;48.828;9.064;2023-12-28T10:15:24;5.30;;;2.42;;
26113;SDS011;13966;48.828;9.064;2023-12-28T10:17:51;5.32;;;2.47;;
26113;SDS011;13966;48.828;9.064;2023-12-28T10:20:17;5.35;;;2.25;;
26113;SDS011;13966;48.828;9.064;2023-12-28T10:22:43;7.57;;;3.00;;
26113;SDS011;13966;48.828;9.064;2023-12-28T10:25:09;4.88;;;3.08;;
26113;SDS011;13966;48.828;9.064;2023-12-28T10:27:39;5.75;;;3.20;;
26113;SDS011;13966;48.828;9.064;2023-12-28T10:30:08;5.53;;;2.63;;
26113;SDS011;13966;48.828;9.064;2023-12-28T10:32:40;5.15;;;2.13;;
26113;SDS011;13966;48.828;9.064;2023-12-28T10:35:07;2.45;;;1.73;;
26113;SDS011;13966;48.828;9.064;2023-12-28T10:37:33;3.30;;;2.20;;
26113;SDS011;13966;48.828;9.064;2023-12-28T10:40:01;2.88;;;1.42;;
26113;SDS011;13966;48.828;9.064;2023-12-28T10:42:37;3.85;;;2.00;;
26113;SDS011;13966;48.828;9.064;2023-12-28T10:45:06;4.03;;;1.80;;
26113;SDS011;13966;48.828;9.064;2023-12-28T10:47:32;5.45;;;2.67;;
26113;SDS011;13966;48.828;9.064;2023-12-28T10:50:02;3.10;;;1.58;;
26113;SDS011;13966;48.828;9.064;2023-12-28T10:52:30;3.30;;;1.77;;
26113;SDS011;13966;48.828;9.064;2023-12-28T10:54:57;3.17;;;1.50;;
26113;SDS011;13966;48.828;9.064;2023-12-28T10:57:37;3.10;;;1.73;;
26113;SDS011;13966;48.828;9.064;2023-12-28T11:00:14;3.50;;;1.52;;
26113;SDS011;13966;48.828;9.064;2023-12-28T11:02:44;3.17;;;1.55;;
26113;SDS011;13966;48.828;9.064;2023-12-28T11:05:13;1.98;;;1.33;;
26113;SDS011;13966;48.828;9.064;2023-12-28T11:07:40;2.80;;;1.75;;
26113;SDS011;13966;48.828;9.064;2023-12-28T11:10:07;3.22;;;1.27;;
26113;SDS011;13966;48.828;9.064;2023-12-28T11:12:35;2.90;;;1.50;;
26113;SDS011;13966;48.828;9.064;2023-12-28T11:15:01;2.60;;;1.35;;
26113;SDS011;13966;48.828;9.064;2023-12-28T11:17:28;1.60;;;1.38;;
26113;SDS011;13966;48.828;9.064;2023-12-28T11:19:56;3.50;;;1.67;;
26113;SDS011;13966;48.828;9.064;2023-12-28T11:22:22;3.67;;;1.52;;
26113;SDS011;13966;48.828;9.064;2023-12-28T11:24:51;4.88;;;2.00;;
26113;SDS011;13966;48.828;9.064;2023-12-28T11:27:18;5.20;;;2.20;;
26113;SDS011;13966;48.828;9.064;2023-12-28T11:29:44;2.95;;;1.83;;
26113;SDS011;13966;48.828;9.064;2023-12-28T11:32:10;2.25;;;1.60;;
26113;SDS011;13966;48.828;9.064;2023-12-28T11:34:36;3.22;;;1.80;;
26113;SDS011;13966;48.828;9.064;2023-12-28T11:37:03;3.67;;;1.88;;
26113;SDS011;13966;48.828;9.064;2023-12-28T11:39:31;3.47;;;1.73;;
26113;SDS011;13966;48.828;9.064;2023-12-28T11:42:01;4.05;;;1.58;;
26113;SDS011;13966;48.828;9.064;2023-12-28T11:44:28;2.60;;;1.60;;
26113;SDS011;13966;48.828;9.064;2023-12-28T11:46:54;3.67;;;1.85;;
26113;SDS011;13966;48.828;9.064;2023-12-28T11:49:24;2.97;;;2.05;;
26113;SDS011;13966;48.828;9.064;2023-12-28T11:51:56;3.17;;;1.70;;
26113;SDS011;13966;48.828;9.064;2023-12-28T11:54:23;3.27;;;1.63;;
26113;SDS011;13966;48.828;9.064;2023-12-28T11:56:50;2.75;;;1.55;;
26113;SDS011;13966;48.828;9.064;2023-12-28T11:59:17;4.07;;;2.15;;
26113;SDS011;13966;48.828;9.064;2023-12-28T12:01:43;4.00;;;2.00;;
26113;SDS011;13966;48.828;9.064;2023-12-28T12:04:09;4.05;;;1.67;;
26113;SDS011;13966;48.828;9.064;2023-12-28T12:06:36;3.30;;;2.00;;
26113;SDS011;13966;48.828;9.064;2023-12-28T12:09:02;2.58;;;2.17;;
26113;SDS011;13966;48.828;9.064;2023-12-28T12:11:29;4.00;;;2.65;;
26113;SDS011;13966;48.828;9.064;2023-12-28T12:13:55;10.63;;;3.25;;
26113;SDS011;13966;48.828;9.064;2023-12-28T12:16:21;5.70;;;3.38;;
26113;SDS011;13966;48.828;9.064;2023-12-28T12:18:48;5.78;;;3.65;;
26113;SDS011;13966;48.828;9.064;2023-12-28T12:21:14;7.07;;;3.40;;
26113;SDS011;13966;48.828;9.064;2023-12-28T12:23:40;6.55;;;3.13;;
26113;SDS011;13966;48.828;9.064;2023-12-28T12:26:06;5.25;;;3.47;;
26113;SDS011;13966;48.828;9.064;2023-12-28T12:28:33;8.18;;;4.40;;
26113;SDS011;13966;48.828;9.064;2023-12-28T12:30:59;8.82;;;5.03;;
26113;SDS011;13966;48.828;9.064;2023-12-28T12:33:29;9.00;;;5.47;;
26113;SDS011;13966;48.828;9.064;2023-12-28T12:35:56;10.75;;;7.10;;
26113;SDS011;13966;48.828;9.064;2023-12-28T12:38:22;12.07;;;6.70;;
26113;SDS011;13966;48.828;9.064;2023-12-28T12:40:50;10.35;;;4.65;;
26113;SDS011;13966;48.828;9.064;2023-12-28T12:43:16;8.05;;;4.57;;
26113;SDS011;13966;48.828;9.064;2023-12-28T12:45:44;9.23;;;4.20;;
26113;SDS011;13966;48.828;9.064;2023-12-28T12:48:11;5.45;;;3.97;;
26113;SDS011;13966;48.828;9.064;2023-12-28T12:50:37;7.57;;;4.20;;
26113;SDS011;13966;48.828;9.064;2023-12-28T12:53:06;5.95;;;4.03;;
26113;SDS011;13966;48.828;9.064;2023-12-28T12:55:32;5.50;;;2.70;;
26113;SDS011;13966;48.828;9.064;2023-12-28T12:57:58;4.95;;;2.95;;
26113;SDS011;13966;48.828;9.064;2023-12-28T13:00:24;6.07;;;2.65;;
26113;SDS011;13966;48.828;9.064;2023-12-28T13:02:50;4.35;;;2.60;;
26113;SDS011;13966;48.828;9.064;2023-12-28T13:05:18;6.90;;;2.80;;
26113;SDS011;13966;48.828;9.064;2023-12-28T13:07:44;4.07;;;3.00;;
26113;SDS011;13966;48.828;9.064;2023-12-28T13:10:10;5.97;;;3.63;;
26113;SDS011;13966;48.828;9.064;2023-12-28T13:12:36;5.68;;;3.90;;
26113;SDS011;13966;48.828;9.064;2023-12-28T13:15:02;3.63;;;2.88;;
26113;SDS011;13966;48.828;9.064;2023-12-28T13:17:28;4.82;;;2.80;;
26113;SDS011;13966;48.828;9.064;2023-12-28T13:19:54;3.75;;;2.40;;
26113;SDS011;13966;48.828;9.064;2023-12-28T13:22:20;8.02;;;4.32;;
26113;SDS011;13966;48.828;9.064;2023-12-28T13:24:46;5.60;;;2.60;;
26113;SDS011;13966;48.828;9.064;2023-12-28T13:27:12;3.38;;;2.20;;
26113;SDS011;13966;48.828;9.064;2023-12-28T13:29:39;3.13;;;2.17;;
26113;SDS011;13966;48.828;9.064;2023-12-28T13:32:05;4.97;;;2.40;;
26113;SDS011;13966;48.828;9.064;2023-12-28T13:34:31;3.28;;;1.85;;
26113;SDS011;13966;48.828;9.064;2023-12-28T13:36:57;4.18;;;2.40;;
26113;SDS011;13966;48.828;9.064;2023-12-28T13:39:24;2.15;;;1.70;;
26113;SDS011;13966;48.828;9.064;2023-12-28T13:41:53;1.80;;;1.45;;
26113;SDS011;13966;48.828;9.064;2023-12-28T13:44:19;2.10;;;1.55;;
26113;SDS011;13966;48.828;9.064;2023-12-28T13:46:45;2.17;;;1.40;;
26113;SDS011;13966;48.828;9.064;2023-12-28T13:49:11;4.55;;;1.88;;
26113;SDS011;13966;48.828;9.064;2023-12-28T13:51:37;3.45;;;2.00;;
26113;SDS011;13966;48.828;9.064;2023-12-28T13:54:03;2.15;;;1.50;;
26113;SDS011;13966;48.828;9.064;2023-12-28T13:56:30;3.33;;;1.92;;
26113;SDS011;13966;48.828;9.064;2023-12-28T13:58:56;3.10;;;1.40;;
26113;SDS011;13966;48.828;9.064;2023-12-28T14:01:22;2.17;;;1.52;;
26113;SDS011;13966;48.828;9.064;2023-12-28T14:03:48;3.83;;;2.40;;
26113;SDS011;13966;48.828;9.064;2023-12-28T14:06:16;1.45;;;1.33;;
26113;SDS011;13966;48.828;9.064;2023-12-28T14:08:43;1.98;;;1.33;;
26113;SDS011;13966;48.828;9.064;2023-12-28T14:11:09;5.03;;;2.30;;
26113;SDS011;13966;48.828;9.064;2023-12-28T14:13:35;5.55;;;2.47;;
26113;SDS011;13966;48.828;9.064;2023-12-28T14:16:02;4.13;;;2.65;;
26113;SDS011;13966;48.828;9.064;2023-12-28T14:18:28;4.60;;;2.00;;
26113;SDS011;13966;48.828;9.064;2023-12-28T14:20:54;4.30;;;2.45;;
26113;SDS011;13966;48.828;9.064;2023-12-28T14:23:20;4.88;;;2.90;;
26113;SDS011;13966;48.828;9.064;2023-12-28T14:25:46;4.38;;;2.50;;
26113;SDS011;13966;48.828;9.064;2023-12-28T14:28:18;6.75;;;4.03;;
26113;SDS011;13966;48.828;9.064;2023-12-28T14:30:44;7.05;;;3.65;;
26113;SDS011;13966;48.828;9.064;2023-12-28T14:33:10;4.38;;;2.88;;
26113;SDS011;13966;48.828;9.064;2023-12-28T14:35:36;3.95;;;2.85;;
26113;SDS011;13966;48.828;9.064;2023-12-28T14:38:04;6.78;;;3.80;;
26113;SDS011;13966;48.828;9.064;2023-12-28T14:40:31;7.30;;;3.40;;
26113;SDS011;13966;48.828;9.064;2023-12-28T14:42:57;3.20;;;2.10;;
26113;SDS011;13966;48.828;9.064;2023-12-28T14:45:23;3.38;;;1.88;;